sensor_id;sensor_type;location;lat;lon;timestamp;pressure;altitude;pressure_sealevel;temperature
73673;BMP280;61972;19.480;-99.240;2023-04-15T00:01:22;77319.97;;;29.24
73673;BMP280;61972;19.480;-99.240;2023-04-15T00:04:07;77321.41;;;29.20
73673;BMP280;61972;19.480;-99.240;2023-04-15T00:06:36;77312.41;;;29.19
73673;BMP280;61972;19.480;-99.240;2023-04-15T00:09:07;77323.38;;;29.17
73673;BMP280;61972;19.480;-99.240;2023-04-15T00:11:36;77326.94;;;29.16
73673;BMP280;61972;19.480;-99.240;2023-04-15T00:14:22;77331.69;;;29.15
73673;BMP280;61972;19.480;-99.240;2023-04-15T00:17:38;77334.75;;;29.13
73673;BMP280;61972;19.480;-99.240;2023-04-15T00:20:17;77334.75;;;29.13
73673;BMP280;61972;19.480;-99.240;2023-04-15T00:22:44;77337.81;;;29.11
73673;BMP280;61972;19.480;-99.240;2023-04-15T00:25:11;77336.16;;;29.10
73673;BMP280;61972;19.480;-99.240;2023-04-15T00:27:40;77341.94;;;29.10
73673;BMP280;61972;19.480;-99.240;2023-04-15T00:30:12;77339.75;;;29.08
73673;BMP280;61972;19.480;-99.240;2023-04-15T00:32:39;77335.47;;;29.07
73673;BMP280;61972;19.480;-99.240;2023-04-15T00:35:07;77336.47;;;29.05
73673;BMP280;61972;19.480;-99.240;2023-04-15T00:37:35;77340.06;;;29.03
73673;BMP280;61972;19.480;-99.240;2023-04-15T00:40:06;77350.03;;;29.03
73673;BMP280;61972;19.480;-99.240;2023-04-15T00:42:38;77351.03;;;29.01
73673;BMP280;61972;19.480;-99.240;2023-04-15T00:45:04;77349.91;;;29.00
73673;BMP280;61972;19.480;-99.240;2023-04-15T00:47:36;77356.16;;;28.99
73673;BMP280;61972;19.480;-99.240;2023-04-15T00:50:05;77350.34;;;28.98
73673;BMP280;61972;19.480;-99.240;2023-04-15T01:17:19;77403.59;;;28.79
73673;BMP280;61972;19.480;-99.240;2023-04-15T01:19:48;77409.28;;;28.77
73673;BMP280;61972;19.480;-99.240;2023-04-15T01:22:15;77409.28;;;28.77
73673;BMP280;61972;19.480;-99.240;2023-04-15T01:24:48;77422.44;;;28.77
73673;BMP280;61972;19.480;-99.240;2023-04-15T01:27:18;77416.31;;;28.81
73673;BMP280;61972;19.480;-99.240;2023-04-15T01:29:48;77418.09;;;28.86
73673;BMP280;61972;19.480;-99.240;2023-04-15T01:32:17;77439.00;;;28.93
73673;BMP280;61972;19.480;-99.240;2023-04-15T01:34:44;77435.47;;;28.97
73673;BMP280;61972;19.480;-99.240;2023-04-15T01:37:10;77447.78;;;29.01
73673;BMP280;61972;19.480;-99.240;2023-04-15T01:39:39;77445.84;;;29.04
73673;BMP280;61972;19.480;-99.240;2023-04-15T01:42:09;77451.78;;;29.07
73673;BMP280;61972;19.480;-99.240;2023-04-15T01:44:41;77455.09;;;29.10
73673;BMP280;61972;19.480;-99.240;2023-04-15T01:47:33;77457.84;;;29.13
73673;BMP280;61972;19.480;-99.240;2023-04-15T01:50:09;77461.72;;;29.16
73673;BMP280;61972;19.480;-99.240;2023-04-15T01:52:36;77462.25;;;29.17
73673;BMP280;61972;19.480;-99.240;2023-04-15T01:55:14;77455.63;;;29.20
73673;BMP280;61972;19.480;-99.240;2023-04-15T01:57:49;77465.69;;;29.23
73673;BMP280;61972;19.480;-99.240;2023-04-15T02:00:15;77473.72;;;29.25
73673;BMP280;61972;19.480;-99.240;2023-04-15T02:02:45;77481.19;;;29.27
73673;BMP280;61972;19.480;-99.240;2023-04-15T02:05:11;77482.84;;;29.29
73673;BMP280;61972;19.480;-99.240;2023-04-15T02:07:41;77484.47;;;29.30
73673;BMP280;61972;19.480;-99.240;2023-04-15T02:10:07;77486.16;;;29.32
73673;BMP280;61972;19.480;-99.240;2023-04-15T02:12:34;77483.09;;;29.34
73673;BMP280;61972;19.480;-99.240;2023-04-15T02:15:00;77495.81;;;29.36
73673;BMP280;61972;19.480;-99.240;2023-04-15T02:17:32;77495.81;;;29.36
73673;BMP280;61972;19.480;-99.240;2023-04-15T02:19:59;77503.28;;;29.38
73673;BMP280;61972;19.480;-99.240;2023-04-15T02:22:32;77514.94;;;29.39
73673;BMP280;61972;19.480;-99.240;2023-04-15T02:25:00;77512.31;;;29.39
73673;BMP280;61972;19.480;-99.240;2023-04-15T02:27:42;77517.69;;;29.42
73673;BMP280;61972;19.480;-99.240;2023-04-15T02:30:32;77521.97;;;29.43
73673;BMP280;61972;19.480;-99.240;2023-04-15T02:33:01;77522.53;;;29.44
73673;BMP280;61972;19.480;-99.240;2023-04-15T02:35:39;77525.72;;;29.44
73673;BMP280;61972;19.480;-99.240;2023-04-15T02:38:14;77530.97;;;29.44
73673;BMP280;61972;19.480;-99.240;2023-04-15T02:40:42;77527.94;;;29.46
73673;BMP280;61972;19.480;-99.240;2023-04-15T02:43:09;77541.09;;;29.46
73673;BMP280;61972;19.480;-99.240;2023-04-15T02:49:14;77552.72;;;29.47
73673;BMP280;61972;19.480;-99.240;2023-04-15T02:51:40;77555.34;;;29.47
73673;BMP280;61972;19.480;-99.240;2023-04-15T02:54:09;77554.25;;;29.46
73673;BMP280;61972;19.480;-99.240;2023-04-15T02:56:35;77564.78;;;29.46
73673;BMP280;61972;19.480;-99.240;2023-04-15T02:59:04;77558.94;;;29.46
73673;BMP280;61972;19.480;-99.240;2023-04-15T03:01:30;77564.78;;;29.46
73673;BMP280;61972;19.480;-99.240;2023-04-15T03:03:56;77568.53;;;29.47
73673;BMP280;61972;19.480;-99.240;2023-04-15T03:06:23;77574.75;;;29.46
73673;BMP280;61972;19.480;-99.240;2023-04-15T03:08:50;77575.31;;;29.46
73673;BMP280;61972;19.480;-99.240;2023-04-15T03:11:16;77570.03;;;29.46
73673;BMP280;61972;19.480;-99.240;2023-04-15T03:13:49;77585.28;;;29.46
73673;BMP280;61972;19.480;-99.240;2023-04-15T03:16:15;77578.91;;;29.45
73673;BMP280;61972;19.480;-99.240;2023-04-15T03:18:41;77579.47;;;29.45
73673;BMP280;61972;19.480;-99.240;2023-04-15T03:21:07;77584.75;;;29.45
73673;BMP280;61972;19.480;-99.240;2023-04-15T03:23:36;77584.75;;;29.45
73673;BMP280;61972;19.480;-99.240;2023-04-15T03:26:03;77596.38;;;29.46
73673;BMP280;61972;19.480;-99.240;2023-04-15T03:28:33;77595.81;;;29.46
73673;BMP280;61972;19.480;-99.240;2023-04-15T03:30:59;77596.38;;;29.46
73673;BMP280;61972;19.480;-99.240;2023-04-15T03:33:25;77594.28;;;29.47
73673;BMP280;61972;19.480;-99.240;2023-04-15T03:35:52;77597.91;;;29.45
73673;BMP280;61972;19.480;-99.240;2023-04-15T03:38:18;77600.53;;;29.45
73673;BMP280;61972;19.480;-99.240;2023-04-15T03:40:46;77594.72;;;29.45
73673;BMP280;61972;19.480;-99.240;2023-04-15T03:43:12;77600.53;;;29.45
73673;BMP280;61972;19.480;-99.240;2023-04-15T03:45:38;77601.06;;;29.46
73673;BMP280;61972;19.480;-99.240;2023-04-15T03:48:04;77604.69;;;29.44
73673;BMP280;61972;19.480;-99.240;2023-04-15T03:50:31;77599.44;;;29.44
73673;BMP280;61972;19.480;-99.240;2023-04-15T03:53:00;77614.13;;;29.43
73673;BMP280;61972;19.480;-99.240;2023-04-15T03:55:26;77609.41;;;29.44
73673;BMP280;61972;19.480;-99.240;2023-04-15T03:57:52;77616.75;;;29.43
73673;BMP280;61972;19.480;-99.240;2023-04-15T04:00:19;77611.91;;;29.41
73673;BMP280;61972;19.480;-99.240;2023-04-15T04:02:45;77617.16;;;29.41
73673;BMP280;61972;19.480;-99.240;2023-04-15T04:05:11;77616.63;;;29.40
73673;BMP280;61972;19.480;-99.240;2023-04-15T04:07:40;77614.41;;;29.38
73673;BMP280;61972;19.480;-99.240;2023-04-15T04:10:07;77629.66;;;29.38
73673;BMP280;61972;19.480;-99.240;2023-04-15T04:12:58;77630.22;;;29.38
73673;BMP280;61972;19.480;-99.240;2023-04-15T04:15:24;77640.75;;;29.38
73673;BMP280;61972;19.480;-99.240;2023-04-15T04:17:50;77639.06;;;29.37
73673;BMP280;61972;19.480;-99.240;2023-04-15T04:20:17;77644.31;;;29.37
73673;BMP280;61972;19.480;-99.240;2023-04-15T04:33:56;77665.69;;;29.32
73673;BMP280;61972;19.480;-99.240;2023-04-15T04:36:26;77669.28;;;29.31
73673;BMP280;61972;19.480;-99.240;2023-04-15T04:38:52;77666.66;;;29.31
73673;BMP280;61972;19.480;-99.240;2023-04-15T04:41:18;77666.09;;;29.30
73673;BMP280;61972;19.480;-99.240;2023-04-15T04:43:44;77668.19;;;29.30
73673;BMP280;61972;19.480;-99.240;2023-04-15T04:46:10;77673.47;;;29.30
73673;BMP280;61972;19.480;-99.240;2023-04-15T04:48:37;77679.25;;;29.30
73673;BMP280;61972;19.480;-99.240;2023-04-15T04:51:04;77672.34;;;29.29
73673;BMP280;61972;19.480;-99.240;2023-04-15T04:53:30;77680.78;;;29.29
73673;BMP280;61972;19.480;-99.240;2023-04-15T04:55:56;77681.75;;;29.28
73673;BMP280;61972;19.480;-99.240;2023-04-15T04:58:22;77681.75;;;29.28
73673;BMP280;61972;19.480;-99.240;2023-04-15T05:00:49;77681.75;;;29.28
73673;BMP280;61972;19.480;-99.240;2023-04-15T05:03:21;77674.84;;;29.26
73673;BMP280;61972;19.480;-99.240;2023-04-15T05:05:47;77678.03;;;29.27
73673;BMP280;61972;19.480;-99.240;2023-04-15T05:08:14;77672.75;;;29.27
73673;BMP280;61972;19.480;-99.240;2023-04-15T05:10:44;77679.56;;;29.26
73673;BMP280;61972;19.480;-99.240;2023-04-15T05:13:10;77679.56;;;29.26
73673;BMP280;61972;19.480;-99.240;2023-04-15T05:15:36;77677.88;;;29.24
73673;BMP280;61972;19.480;-99.240;2023-04-15T05:18:06;77677.88;;;29.24
73673;BMP280;61972;19.480;-99.240;2023-04-15T05:20:32;77677.34;;;29.24
73673;BMP280;61972;19.480;-99.240;2023-04-15T05:23:01;77676.22;;;29.23
73673;BMP280;61972;19.480;-99.240;2023-04-15T05:25:27;77680.38;;;29.21
73673;BMP280;61972;19.480;-99.240;2023-04-15T05:27:53;77680.25;;;29.19
73673;BMP280;61972;19.480;-99.240;2023-04-15T05:31:21;77669.59;;;29.16
73673;BMP280;61972;19.480;-99.240;2023-04-15T05:33:46;77677.50;;;29.16
73673;BMP280;61972;19.480;-99.240;2023-04-15T05:36:12;77672.66;;;29.14
73673;BMP280;61972;19.480;-99.240;2023-04-15T05:38:44;77682.06;;;29.13
73673;BMP280;61972;19.480;-99.240;2023-04-15T05:41:11;77685.13;;;29.11
73673;BMP280;61972;19.480;-99.240;2023-04-15T05:43:43;77678.31;;;29.12
73673;BMP280;61972;19.480;-99.240;2023-04-15T05:46:21;77683.56;;;29.12
73673;BMP280;61972;19.480;-99.240;2023-04-15T05:48:50;77680.41;;;29.12
73673;BMP280;61972;19.480;-99.240;2023-04-15T05:54:13;77674.59;;;29.11
73673;BMP280;61972;19.480;-99.240;2023-04-15T05:56:39;77676.09;;;29.10
73673;BMP280;61972;19.480;-99.240;2023-04-15T05:59:05;77676.09;;;29.10
73673;BMP280;61972;19.480;-99.240;2023-04-15T06:01:34;77677.22;;;29.11
73673;BMP280;61972;19.480;-99.240;2023-04-15T06:04:01;77674.03;;;29.11
73673;BMP280;61972;19.480;-99.240;2023-04-15T06:06:27;77671.25;;;29.08
73673;BMP280;61972;19.480;-99.240;2023-04-15T06:08:53;77675.44;;;29.07
73673;BMP280;61972;19.480;-99.240;2023-04-15T06:11:20;77675.44;;;29.07
73673;BMP280;61972;19.480;-99.240;2023-04-15T06:13:46;77680.69;;;29.07
73673;BMP280;61972;19.480;-99.240;2023-04-15T06:16:12;77679.56;;;29.06
73673;BMP280;61972;19.480;-99.240;2023-04-15T06:18:38;77684.28;;;29.06
73673;BMP280;61972;19.480;-99.240;2023-04-15T06:21:05;77686.38;;;29.05
73673;BMP280;61972;19.480;-99.240;2023-04-15T06:23:34;77674.75;;;29.04
73673;BMP280;61972;19.480;-99.240;2023-04-15T06:26:08;77681.50;;;29.03
73673;BMP280;61972;19.480;-99.240;2023-04-15T06:28:46;77678.88;;;29.03
73673;BMP280;61972;19.480;-99.240;2023-04-15T06:31:13;77677.78;;;29.02
73673;BMP280;61972;19.480;-99.240;2023-04-15T06:33:49;77668.78;;;29.01
73673;BMP280;61972;19.480;-99.240;2023-04-15T06:36:15;77675.16;;;29.02
73673;BMP280;61972;19.480;-99.240;2023-04-15T06:38:41;77674.03;;;29.01
73673;BMP280;61972;19.480;-99.240;2023-04-15T06:41:07;77666.72;;;29.01
73673;BMP280;61972;19.480;-99.240;2023-04-15T06:43:34;77663.53;;;29.01
73673;BMP280;61972;19.480;-99.240;2023-04-15T06:46:00;77656.63;;;28.99
73673;BMP280;61972;19.480;-99.240;2023-04-15T06:48:26;77662.41;;;29.00
73673;BMP280;61972;19.480;-99.240;2023-04-15T06:50:52;77656.63;;;28.99
73673;BMP280;61972;19.480;-99.240;2023-04-15T06:53:19;77662.81;;;28.98
73673;BMP280;61972;19.480;-99.240;2023-04-15T06:55:46;77659.06;;;28.97
73673;BMP280;61972;19.480;-99.240;2023-04-15T06:58:12;77647.47;;;28.96
73673;BMP280;61972;19.480;-99.240;2023-04-15T07:00:38;77650.09;;;28.96
73673;BMP280;61972;19.480;-99.240;2023-04-15T07:03:05;77639.44;;;28.93
73673;BMP280;61972;19.480;-99.240;2023-04-15T07:05:32;77640.97;;;28.92
73673;BMP280;61972;19.480;-99.240;2023-04-15T07:07:58;77636.66;;;28.91
73673;BMP280;61972;19.480;-99.240;2023-04-15T07:10:24;77640.25;;;28.89
73673;BMP280;61972;19.480;-99.240;2023-04-15T07:12:51;77638.59;;;28.88
73673;BMP280;61972;19.480;-99.240;2023-04-15T07:15:17;77643.88;;;28.88
73673;BMP280;61972;19.480;-99.240;2023-04-15T07:17:49;77639.03;;;28.86
73673;BMP280;61972;19.480;-99.240;2023-04-15T07:20:45;77639.44;;;28.83
73673;BMP280;61972;19.480;-99.240;2023-04-15T07:23:16;77638.34;;;28.82
73673;BMP280;61972;19.480;-99.240;2023-04-15T07:25:43;77637.25;;;28.81
73673;BMP280;61972;19.480;-99.240;2023-04-15T07:28:09;77632.41;;;28.79
73673;BMP280;61972;19.480;-99.240;2023-04-15T07:30:35;77630.31;;;28.80
73673;BMP280;61972;19.480;-99.240;2023-04-15T07:33:01;77629.78;;;28.79
73673;BMP280;61972;19.480;-99.240;2023-04-15T07:35:28;77625.47;;;28.78
73673;BMP280;61972;19.480;-99.240;2023-04-15T07:37:54;77626.44;;;28.76
73673;BMP280;61972;19.480;-99.240;2023-04-15T07:40:20;77631.72;;;28.76
73673;BMP280;61972;19.480;-99.240;2023-04-15T07:42:47;77620.06;;;28.75
73673;BMP280;61972;19.480;-99.240;2023-04-15T07:45:14;77624.81;;;28.75
73673;BMP280;61972;19.480;-99.240;2023-04-15T07:47:41;77624.25;;;28.74
73673;BMP280;61972;19.480;-99.240;2023-04-15T07:50:08;77613.72;;;28.74
73673;BMP280;61972;19.480;-99.240;2023-04-15T07:52:35;77617.75;;;28.71
73673;BMP280;61972;19.480;-99.240;2023-04-15T07:58:18;77613.41;;;28.69
73673;BMP280;61972;19.480;-99.240;2023-04-15T08:00:44;77616.50;;;28.67
73673;BMP280;61972;19.480;-99.240;2023-04-15T08:03:10;77611.66;;;28.65
73673;BMP280;61972;19.480;-99.240;2023-04-15T08:05:36;77605.28;;;28.64
73673;BMP280;61972;19.480;-99.240;2023-04-15T08:08:02;77612.06;;;28.63
73673;BMP280;61972;19.480;-99.240;2023-04-15T08:10:32;77619.41;;;28.62
73673;BMP280;61972;19.480;-99.240;2023-04-15T08:12:58;77610.41;;;28.61
73673;BMP280;61972;19.480;-99.240;2023-04-15T08:15:33;77607.22;;;28.61
73673;BMP280;61972;19.480;-99.240;2023-04-15T08:17:59;77612.47;;;28.61
73673;BMP280;61972;19.480;-99.240;2023-04-15T08:21:04;77614.97;;;28.58
73673;BMP280;61972;19.480;-99.240;2023-04-15T08:23:31;77607.63;;;28.59
73673;BMP280;61972;19.480;-99.240;2023-04-15T08:25:58;77609.56;;;28.56
73673;BMP280;61972;19.480;-99.240;2023-04-15T08:28:24;77610.00;;;28.54
73673;BMP280;61972;19.480;-99.240;2023-04-15T08:30:51;77610.97;;;28.52
73673;BMP280;61972;19.480;-99.240;2023-04-15T08:33:18;77608.19;;;28.50
73673;BMP280;61972;19.480;-99.240;2023-04-15T08:35:44;77602.38;;;28.49
73673;BMP280;61972;19.480;-99.240;2023-04-15T08:38:11;77613.16;;;28.44
73673;BMP280;61972;19.480;-99.240;2023-04-15T08:40:42;77610.41;;;28.32
73673;BMP280;61972;19.480;-99.240;2023-04-15T08:43:12;77600.72;;;28.18
73673;BMP280;61972;19.480;-99.240;2023-04-15T08:45:40;77604.31;;;28.07
73673;BMP280;61972;19.480;-99.240;2023-04-15T08:48:09;77610.09;;;27.98
73673;BMP280;61972;19.480;-99.240;2023-04-15T08:50:42;77612.28;;;27.90
73673;BMP280;61972;19.480;-99.240;2023-04-15T08:53:09;77612.00;;;27.85
73673;BMP280;61972;19.480;-99.240;2023-04-15T08:55:43;77612.44;;;27.83
73673;BMP280;61972;19.480;-99.240;2023-04-15T08:58:14;77609.81;;;27.83
73673;BMP280;61972;19.480;-99.240;2023-04-15T09:00:41;77604.94;;;27.81
73673;BMP280;61972;19.480;-99.240;2023-04-15T09:03:08;77600.69;;;27.79
73673;BMP280;61972;19.480;-99.240;2023-04-15T09:05:35;77594.84;;;27.79
73673;BMP280;61972;19.480;-99.240;2023-04-15T09:08:02;77599.00;;;27.78
73673;BMP280;61972;19.480;-99.240;2023-04-15T09:10:29;77599.84;;;27.74
73673;BMP280;61972;19.480;-99.240;2023-04-15T09:12:56;77595.97;;;27.70
73673;BMP280;61972;19.480;-99.240;2023-04-15T09:15:24;77587.38;;;27.67
73673;BMP280;61972;19.480;-99.240;2023-04-15T09:17:52;77595.09;;;27.64
73673;BMP280;61972;19.480;-99.240;2023-04-15T09:20:19;77591.25;;;27.61
73673;BMP280;61972;19.480;-99.240;2023-04-15T09:22:47;77596.34;;;27.58
73673;BMP280;61972;19.480;-99.240;2023-04-15T09:27:57;77612.78;;;27.51
73673;BMP280;61972;19.480;-99.240;2023-04-15T09:30:25;77612.44;;;27.46
73673;BMP280;61972;19.480;-99.240;2023-04-15T09:32:57;77610.09;;;27.42
73673;BMP280;61972;19.480;-99.240;2023-04-15T09:35:24;77612.03;;;27.39
73673;BMP280;61972;19.480;-99.240;2023-04-15T09:38:07;77611.34;;;27.36
73673;BMP280;61972;19.480;-99.240;2023-04-15T09:40:40;77609.53;;;27.31
73673;BMP280;61972;19.480;-99.240;2023-04-15T09:43:08;77611.44;;;27.28
73673;BMP280;61972;19.480;-99.240;2023-04-15T09:45:35;77616.13;;;27.28
73673;BMP280;61972;19.480;-99.240;2023-04-15T09:48:24;77624.41;;;27.26
73673;BMP280;61972;19.480;-99.240;2023-04-15T09:50:59;77624.25;;;27.23
73673;BMP280;61972;19.480;-99.240;2023-04-15T09:53:26;77624.66;;;27.21
73673;BMP280;61972;19.480;-99.240;2023-04-15T09:55:58;77634.44;;;27.18
73673;BMP280;61972;19.480;-99.240;2023-04-15T09:58:36;77636.38;;;27.15
73673;BMP280;61972;19.480;-99.240;2023-04-15T10:01:11;77628.34;;;27.12
73673;BMP280;61972;19.480;-99.240;2023-04-15T10:04:13;77639.09;;;27.08
73673;BMP280;61972;19.480;-99.240;2023-04-15T10:07:22;77646.81;;;27.05
73673;BMP280;61972;19.480;-99.240;2023-04-15T10:10:14;77656.03;;;27.02
73673;BMP280;61972;19.480;-99.240;2023-04-15T10:12:41;77654.78;;;26.98
73673;BMP280;61972;19.480;-99.240;2023-04-15T10:15:15;77657.25;;;26.95
73673;BMP280;61972;19.480;-99.240;2023-04-15T10:17:43;77657.50;;;26.91
73673;BMP280;61972;19.480;-99.240;2023-04-15T10:20:10;77655.28;;;26.89
73673;BMP280;61972;19.480;-99.240;2023-04-15T10:22:38;77664.66;;;26.88
73673;BMP280;61972;19.480;-99.240;2023-04-15T10:25:06;77672.34;;;26.85
73673;BMP280;61972;19.480;-99.240;2023-04-15T10:27:38;77675.94;;;26.84
73673;BMP280;61972;19.480;-99.240;2023-04-15T10:30:06;77669.03;;;26.82
73673;BMP280;61972;19.480;-99.240;2023-04-15T10:32:34;77674.66;;;26.80
73673;BMP280;61972;19.480;-99.240;2023-04-15T10:35:10;77676.19;;;26.79
73673;BMP280;61972;19.480;-99.240;2023-04-15T10:37:46;77680.72;;;26.76
73673;BMP280;61972;19.480;-99.240;2023-04-15T10:40:27;77690.50;;;26.73
73673;BMP280;61972;19.480;-99.240;2023-04-15T10:43:05;77684.56;;;26.70
73673;BMP280;61972;19.480;-99.240;2023-04-15T10:45:37;77689.81;;;26.70
73673;BMP280;61972;19.480;-99.240;2023-04-15T10:48:06;77689.06;;;26.67
73673;BMP280;61972;19.480;-99.240;2023-04-15T10:50:33;77697.31;;;26.65
73673;BMP280;61972;19.480;-99.240;2023-04-15T10:53:02;77694.00;;;26.62
73673;BMP280;61972;19.480;-99.240;2023-04-15T10:55:32;77687.63;;;26.61
73673;BMP280;61972;19.480;-99.240;2023-04-15T10:58:00;77690.66;;;26.58
73673;BMP280;61972;19.480;-99.240;2023-04-15T11:00:31;77698.38;;;26.56
73673;BMP280;61972;19.480;-99.240;2023-04-15T11:03:07;77700.81;;;26.53
73673;BMP280;61972;19.480;-99.240;2023-04-15T11:12:09;77697.16;;;26.45
73673;BMP280;61972;19.480;-99.240;2023-04-15T11:14:40;77699.25;;;26.45
73673;BMP280;61972;19.480;-99.240;2023-04-15T11:17:07;77693.84;;;26.42
73673;BMP280;61972;19.480;-99.240;2023-04-15T11:19:37;77706.97;;;26.42
73673;BMP280;61972;19.480;-99.240;2023-04-15T11:22:10;77706.22;;;26.39
73673;BMP280;61972;19.480;-99.240;2023-04-15T11:24:45;77705.13;;;26.38
73673;BMP280;61972;19.480;-99.240;2023-04-15T11:27:23;77708.13;;;26.36
73673;BMP280;61972;19.480;-99.240;2023-04-15T11:29:54;77710.59;;;26.33
73673;BMP280;61972;19.480;-99.240;2023-04-15T11:42:41;77719.47;;;26.25
73673;BMP280;61972;19.480;-99.240;2023-04-15T11:45:11;77719.88;;;26.23
73673;BMP280;61972;19.480;-99.240;2023-04-15T11:47:38;77723.44;;;26.21
73673;BMP280;61972;19.480;-99.240;2023-04-15T11:50:18;77728.53;;;26.18
73673;BMP280;61972;19.480;-99.240;2023-04-15T11:53:02;77728.34;;;26.16
73673;BMP280;61972;19.480;-99.240;2023-04-15T11:55:30;77727.25;;;26.15
73673;BMP280;61972;19.480;-99.240;2023-04-15T11:58:09;77734.53;;;26.14
73673;BMP280;61972;19.480;-99.240;2023-04-15T12:00:37;77729.72;;;26.12
73673;BMP280;61972;19.480;-99.240;2023-04-15T12:03:56;77726.38;;;26.09
73673;BMP280;61972;19.480;-99.240;2023-04-15T12:11:19;77745.88;;;26.03
73673;BMP280;61972;19.480;-99.240;2023-04-15T12:13:48;77750.00;;;26.02
73673;BMP280;61972;19.480;-99.240;2023-04-15T12:16:20;77757.13;;;25.99
73673;BMP280;61972;19.480;-99.240;2023-04-15T12:18:53;77758.63;;;25.98
73673;BMP280;61972;19.480;-99.240;2023-04-15T12:21:25;77754.91;;;25.97
73673;BMP280;61972;19.480;-99.240;2023-04-15T12:23:56;77753.78;;;25.96
73673;BMP280;61972;19.480;-99.240;2023-04-15T12:26:34;77763.16;;;25.95
73673;BMP280;61972;19.480;-99.240;2023-04-15T12:29:07;77761.47;;;25.93
73673;BMP280;61972;19.480;-99.240;2023-04-15T12:31:34;77765.06;;;25.92
73673;BMP280;61972;19.480;-99.240;2023-04-15T12:34:01;77774.41;;;25.91
73673;BMP280;61972;19.480;-99.240;2023-04-15T12:36:29;77773.69;;;25.88
73673;BMP280;61972;19.480;-99.240;2023-04-15T12:39:02;77780.41;;;25.87
73673;BMP280;61972;19.480;-99.240;2023-04-15T12:41:29;77784.00;;;25.85
73673;BMP280;61972;19.480;-99.240;2023-04-15T12:43:55;77787.53;;;25.83
73673;BMP280;61972;19.480;-99.240;2023-04-15T12:46:22;77790.53;;;25.81
73673;BMP280;61972;19.480;-99.240;2023-04-15T12:48:49;77790.00;;;25.81
73673;BMP280;61972;19.480;-99.240;2023-04-15T12:51:16;77790.00;;;25.81
73673;BMP280;61972;19.480;-99.240;2023-04-15T12:53:42;77793.00;;;25.79
73673;BMP280;61972;19.480;-99.240;2023-04-15T12:56:08;77793.94;;;25.77
73673;BMP280;61972;19.480;-99.240;2023-04-15T12:58:35;77790.75;;;25.77
73673;BMP280;61972;19.480;-99.240;2023-04-15T13:01:01;77794.31;;;25.75
73673;BMP280;61972;19.480;-99.240;2023-04-15T13:03:28;77794.31;;;25.75
73673;BMP280;61972;19.480;-99.240;2023-04-15T13:05:54;77799.94;;;25.73
73673;BMP280;61972;19.480;-99.240;2023-04-15T13:08:20;77798.84;;;25.72
73673;BMP280;61972;19.480;-99.240;2023-04-15T13:10:46;77796.59;;;25.70
73673;BMP280;61972;19.480;-99.240;2023-04-15T13:13:12;77800.34;;;25.71
73673;BMP280;61972;19.480;-99.240;2023-04-15T13:15:38;77798.69;;;25.70
73673;BMP280;61972;19.480;-99.240;2023-04-15T13:18:11;77801.28;;;25.70
73673;BMP280;61972;19.480;-99.240;2023-04-15T13:20:38;77802.25;;;25.68
73673;BMP280;61972;19.480;-99.240;2023-04-15T13:23:07;77807.06;;;25.70
73673;BMP280;61972;19.480;-99.240;2023-04-15T13:25:34;77806.34;;;25.67
73673;BMP280;61972;19.480;-99.240;2023-04-15T13:28:00;77812.69;;;25.68
73673;BMP280;61972;19.480;-99.240;2023-04-15T13:30:27;77815.13;;;25.65
73673;BMP280;61972;19.480;-99.240;2023-04-15T13:32:54;77822.25;;;25.62
73673;BMP280;61972;19.480;-99.240;2023-04-15T13:35:21;77815.75;;;25.59
73673;BMP280;61972;19.480;-99.240;2023-04-15T13:37:54;77824.34;;;25.55
73673;BMP280;61972;19.480;-99.240;2023-04-15T13:40:21;77818.41;;;25.52
73673;BMP280;61972;19.480;-99.240;2023-04-15T13:42:47;77831.88;;;25.50
73673;BMP280;61972;19.480;-99.240;2023-04-15T13:45:16;77833.94;;;25.49
73673;BMP280;61972;19.480;-99.240;2023-04-15T13:52:00;77837.50;;;25.47
73673;BMP280;61972;19.480;-99.240;2023-04-15T13:57:01;77845.88;;;25.48
73673;BMP280;61972;19.480;-99.240;2023-04-15T13:59:27;77845.16;;;25.45
73673;BMP280;61972;19.480;-99.240;2023-04-15T14:01:54;77850.41;;;25.45
73673;BMP280;61972;19.480;-99.240;2023-04-15T14:04:20;77853.56;;;25.45
73673;BMP280;61972;19.480;-99.240;2023-04-15T14:06:48;77855.06;;;25.44
73673;BMP280;61972;19.480;-99.240;2023-04-15T14:09:14;77851.34;;;25.43
73673;BMP280;61972;19.480;-99.240;2023-04-15T14:11:40;77857.53;;;25.42
73673;BMP280;61972;19.480;-99.240;2023-04-15T14:14:06;77855.47;;;25.42
73673;BMP280;61972;19.480;-99.240;2023-04-15T14:16:33;77860.28;;;25.44
73673;BMP280;61972;19.480;-99.240;2023-04-15T14:19:00;77864.78;;;25.49
73673;BMP280;61972;19.480;-99.240;2023-04-15T14:21:26;77871.69;;;25.50
73673;BMP280;61972;19.480;-99.240;2023-04-15T14:23:53;77862.88;;;25.52
73673;BMP280;61972;19.480;-99.240;2023-04-15T14:26:19;77862.88;;;25.52
73673;BMP280;61972;19.480;-99.240;2023-04-15T14:28:46;77864.00;;;25.53
73673;BMP280;61972;19.480;-99.240;2023-04-15T14:31:13;77860.97;;;25.55
73673;BMP280;61972;19.480;-99.240;2023-04-15T14:33:39;77856.88;;;25.56
73673;BMP280;61972;19.480;-99.240;2023-04-15T14:36:06;77861.72;;;25.58
73673;BMP280;61972;19.480;-99.240;2023-04-15T14:38:36;77864.34;;;25.58
73673;BMP280;61972;19.480;-99.240;2023-04-15T14:41:06;77860.22;;;25.59
73673;BMP280;61972;19.480;-99.240;2023-04-15T14:43:35;77864.72;;;25.56
73673;BMP280;61972;19.480;-99.240;2023-04-15T14:46:01;77862.09;;;25.56
73673;BMP280;61972;19.480;-99.240;2023-04-15T14:48:28;77860.63;;;25.57
73673;BMP280;61972;19.480;-99.240;2023-04-15T14:50:56;77863.22;;;25.57
73673;BMP280;61972;19.480;-99.240;2023-04-15T14:53:22;77864.72;;;25.56
73673;BMP280;61972;19.480;-99.240;2023-04-15T14:55:48;77862.09;;;25.56
73673;BMP280;61972;19.480;-99.240;2023-04-15T15:04:13;77862.31;;;25.51
73673;BMP280;61972;19.480;-99.240;2023-04-15T15:06:40;77863.28;;;25.50
73673;BMP280;61972;19.480;-99.240;2023-04-15T15:09:07;77868.88;;;25.47
73673;BMP280;61972;19.480;-99.240;2023-04-15T15:11:36;77857.31;;;25.46
73673;BMP280;61972;19.480;-99.240;2023-04-15T15:14:02;77861.41;;;25.45
73673;BMP280;61972;19.480;-99.240;2023-04-15T15:16:28;77866.81;;;25.48
73673;BMP280;61972;19.480;-99.240;2023-04-15T15:18:54;77867.03;;;25.51
73673;BMP280;61972;19.480;-99.240;2023-04-15T15:21:21;77864.00;;;25.53